EGMD - Lydd Airport
Distance from station: E 5mi, 14km
Updated: 12/16/2017 9:50pm
Clear
Clear
 Wind from SW
Wind: SW 5 mph , 7 km/h
Temperature: 30°F , -1°C
Wind Chill: 25°F , -4°C
Dew Point: 28°F , -2°C
Humidity: 93%
Barometer: 30.27 inHg , 1025 hPa
Clouds: Clear
Visibility: 4 miles , 6 km
2017/12/17 05:50 EGMD 170550Z AUTO 23004KT 6000 NCD M01/M02 Q1025